Brevoort Island

CWOB · 加拿大

METAR CWOB · Brevoort Island

19 七月 10:08 LT
26m
使用的METAR站距离机场121 NM。
罗盘
风向 的 风向 的 风向 到 风向 200°
风: 3 kt, 1 beaufort

添加一条跑道以查看侧风和逆风信息。

添置 跑道
0 ft 2.000 4.000 6.000 8.000 10.000
Cloud Cloud Cloud Cloud Cloud Cloud
BKN 500
Cloud Cloud Cloud Cloud Cloud Cloud
BKN 5.300
METAR CYFB 191408Z 20003KT 160V230 30SM BKN005 BKN053 04/03 A3004 RMK ST5SC2 INTMT -RA SLP178

METAR Brevoort Island - CWOB

该字段位于加拿大中。 该机场位于纬度63,33333和经度-64,15000。 本场的ICAO机场代码为CWOB。 机场在Montreal FIR中。

该航空气象观测是针对伊魁特機場在2024年7月19日 10:08, 当地时间进行的。

机场观察

风向为200°,速度为3 kt。 风向在160°和230°之间变化。

可见度为30 mi。

有碎云在500 ft的高度 和 碎云在5.300 ft的高度。 破损或更高的上限为500 ft。

温度为4 °C,阵风为1 °C。 露点为3 °C,相对湿度为93%。 海平面上的气压为30,04 inHg (QNH)。

白天

今天,太阳从02:55升起,在21:50降落。 这适用于Brevoort Island,世界夏令时可能有所不同。 当地时间与世界标准时间之间的时差为-4 小时。 夏令时目前正在进行中。

公司介绍

我们没有关于这个机场的公司信息。

体会

到Vliegles.nl去找飞行课程,跳伞和其他飞行体验。 浏览页面,了解Brevoort Island附近所有可用的活动。 你也可以使用搜索功能来寻找你所在地附近的特定飞行课程、跳伞或其他飞行体验。

乌云

500 ft BKN 碎云
5.300 ft BKN 碎云

温度 & 天气

温度 4 °C
露点 3 °C
相对湿度 93%
风寒 1 °C
Kp-index 1 (0-9)

评论

SLP178海平面压力为30,06 inHg (30,06 inHg)
ST5SC2 INTMT -RA

白天

日出
03:07
中午
12:40
日落
22:13 (11:39)

小工具

你想在你的网站上有一个关于Brevoort Island的当前航空天气(METAR)的小部件吗?

显示HTML代码
报告变更